This is the latest recevied weather packets stored in our database for station/object Ummendorf. If no packets are shown the sender has not sent any weather packets the latest 10 day(s).
| Time | Temp. | Humidity | Pressure | Rain* | Wind** | Luminosity | Snow |
|---|---|---|---|---|---|---|---|
| 1777809730 | 24.44° C | 26% | 1013.9 hPa | 0 mm | - | - | - |
| 1777807932 | 24.44° C | 26% | 1014.1 hPa | 0 mm | - | - | - |
| 1777806130 | 23.89° C | 25% | 1014.4 hPa | 0 mm | - | - | - |
| 1777804332 | 23.89° C | 24% | 1014.8 hPa | 0 mm | - | - | - |
| 1777802532 | 23.33° C | 24% | 1015 hPa | 0 mm | - | - | - |
| 1777800731 | 22.78° C | 29% | 1015.4 hPa | 0 mm | - | - | - |
| 1777798930 | 21.11° C | 33% | 1015.7 hPa | 0 mm | - | - | - |
| 1777797132 | 19.44° C | 37% | 1015.8 hPa | 0 mm | - | - | - |
| 1777795332 | 17.78° C | 43% | 1016 hPa | 0 mm | - | - | - |
| 1777793531 | 16.11° C | 48% | 1016.1 hPa | 0 mm | - | - | - |
| 1777791731 | 13.89° C | 48% | 1016.2 hPa | 0 mm | - | - | - |
| 1777789931 | 12.22° C | 52% | 1016.2 hPa | 0 mm | - | - | - |
| 1777788131 | 9.44° C | 59% | 1016.4 hPa | 0 mm | - | - | - |
| 1777786331 | 7.22° C | 61% | 1016.1 hPa | 0 mm | - | - | - |
| 1777784533 | 6.67° C | 60% | 1016 hPa | 0 mm | - | - | - |
| 1777782731 | 6.67° C | 60% | 1016.3 hPa | 0 mm | - | - | - |
| 1777780930 | 6.67° C | 60% | 1016.2 hPa | 0 mm | - | - | - |
| 1777779131 | 6.67° C | 59% | 1016.2 hPa | 0 mm | - | - | - |
| 1777777331 | 7.22° C | 59% | 1016.1 hPa | 0 mm | - | - | - |
| 1777775531 | 7.78° C | 58% | 1016.4 hPa | 0 mm | - | - | - |
| 1777773731 | 7.78° C | 57% | 1016.5 hPa | 0 mm | - | - | - |
| 1777771932 | 8.33° C | 57% | 1016.6 hPa | 0 mm | - | - | - |
| 1777770132 | 8.33° C | 56% | 1016.8 hPa | 0 mm | - | - | - |
| 1777768329 | 8.89° C | 56% | 1016.8 hPa | 0 mm | - | - | - |
| 1777766530 | 8.89° C | 55% | 1017 hPa | 0 mm | - | - | - |
* Rain since midnight (hover to see other rain measurements)
** Current wind speed in m/s (hover to see current wind gust speed)